createdAt,value
2022-12-14T00:01:42.451Z,45.45
2022-12-14T00:04:15.954Z,44.50
2022-12-14T00:06:43.198Z,39.45
2022-12-14T00:09:10.441Z,49.25
2022-12-14T00:11:37.706Z,35.60
2022-12-14T00:14:05.319Z,42.85
2022-12-14T00:16:33.948Z,41.63
2022-12-14T00:19:02.772Z,45.08
2022-12-14T00:21:30.200Z,41.50
2022-12-14T00:23:59.493Z,42.67
2022-12-14T00:26:31.041Z,54.83
2022-12-14T00:29:00.987Z,39.83
2022-12-14T00:31:29.140Z,51.58
2022-12-14T00:33:56.652Z,45.22
2022-12-14T00:36:24.256Z,39.33
2022-12-14T00:38:51.642Z,42.50
2022-12-14T00:41:18.892Z,36.33
2022-12-14T00:43:49.470Z,34.72
2022-12-14T00:46:17.983Z,43.15
2022-12-14T00:48:45.478Z,48.97
2022-12-14T00:51:14.689Z,47.80
2022-12-14T00:53:44.534Z,47.13
2022-12-14T00:56:12.170Z,39.42
2022-12-14T00:58:39.556Z,51.55
2022-12-14T01:01:10.358Z,45.88
2022-12-14T01:03:37.909Z,49.05
2022-12-14T01:06:05.410Z,45.03
2022-12-14T01:08:36.137Z,57.15
2022-12-14T01:11:06.349Z,51.33
2022-12-14T01:13:34.389Z,41.70
2022-12-14T01:16:11.422Z,44.72
2022-12-14T01:18:40.300Z,43.72
2022-12-14T01:21:09.002Z,41.47
2022-12-14T01:23:37.257Z,40.88
2022-12-14T01:26:04.522Z,31.60
2022-12-14T01:28:31.808Z,37.45
2022-12-14T01:30:59.057Z,37.03
2022-12-14T01:33:26.596Z,49.38
2022-12-14T01:35:54.009Z,32.63
2022-12-14T01:38:21.252Z,39.40
2022-12-14T01:40:48.488Z,43.75
2022-12-14T01:43:15.729Z,45.08
2022-12-14T01:45:43.233Z,35.63
2022-12-14T01:48:13.125Z,40.10
2022-12-14T01:50:44.010Z,41.65
2022-12-14T01:53:22.370Z,38.80
2022-12-14T01:55:54.477Z,41.80
2022-12-14T01:58:24.519Z,37.88
2022-12-14T02:00:57.129Z,34.70
2022-12-14T02:03:31.424Z,35.45
2022-12-14T02:06:10.515Z,38.67
2022-12-14T02:08:41.451Z,38.83
2022-12-14T02:11:08.715Z,38.40
2022-12-14T02:13:39.448Z,35.28
2022-12-14T02:16:07.499Z,45.97
2022-12-14T02:18:36.189Z,43.47
2022-12-14T02:21:17.235Z,43.10
2022-12-14T02:24:04.727Z,42.70
2022-12-14T02:27:05.715Z,41.20
2022-12-14T02:29:50.215Z,53.63
2022-12-14T02:33:03.085Z,36.10
2022-12-14T02:35:51.955Z,34.08
2022-12-14T02:38:54.088Z,39.60
2022-12-14T02:41:38.221Z,38.17
2022-12-14T02:44:32.869Z,45.65
2022-12-14T02:47:11.513Z,40.35
2022-12-14T02:50:06.935Z,39.40
2022-12-14T02:52:44.760Z,41.40
2022-12-14T02:55:17.724Z,44.28
2022-12-14T02:58:17.381Z,39.50
2022-12-14T03:00:45.351Z,41.40
2022-12-14T03:06:26.629Z,40.42
2022-12-14T03:08:57.137Z,39.20
2022-12-14T03:11:41.265Z,39.80
2022-12-14T03:14:15.137Z,40.95
2022-12-14T03:16:48.861Z,43.28
2022-12-14T03:19:30.249Z,43.35
2022-12-14T03:22:24.073Z,41.08
2022-12-14T03:24:55.513Z,36.85
2022-12-14T03:27:35.872Z,48.17
2022-12-14T03:30:08.425Z,49.00
2022-12-14T03:32:40.988Z,41.78
2022-12-14T03:35:12.489Z,55.75
2022-12-14T03:37:49.981Z,52.00
2022-12-14T03:40:28.768Z,45.58
2022-12-14T03:43:14.183Z,44.42
2022-12-14T03:45:57.791Z,38.33
2022-12-14T03:48:39.912Z,34.13
2022-12-14T03:51:35.363Z,42.03
2022-12-14T03:54:02.570Z,43.95
2022-12-14T03:56:38.980Z,40.55
2022-12-14T03:59:10.257Z,36.40
2022-12-14T04:01:46.548Z,34.88
2022-12-14T04:04:29.353Z,36.42
2022-12-14T04:07:11.779Z,35.30
2022-12-14T04:10:01.908Z,32.13
2022-12-14T04:12:54.674Z,40.55
2022-12-14T04:15:52.975Z,34.70
2022-12-14T04:18:54.394Z,38.28
2022-12-14T04:21:44.489Z,35.42
2022-12-14T04:24:57.448Z,46.80
2022-12-14T04:27:39.859Z,34.60
2022-12-14T04:30:09.914Z,37.15
2022-12-14T04:32:48.879Z,38.05
2022-12-14T04:35:40.347Z,37.92
2022-12-14T04:38:19.125Z,36.53
2022-12-14T04:40:49.289Z,35.35
2022-12-14T04:43:24.825Z,36.92
2022-12-14T04:46:02.083Z,32.70
2022-12-14T04:49:05.956Z,42.05
2022-12-14T04:51:54.004Z,29.40
2022-12-14T04:54:34.257Z,36.90
2022-12-14T04:57:17.394Z,29.25
2022-12-14T04:59:47.001Z,35.95
2022-12-14T05:02:28.520Z,29.60
2022-12-14T05:05:15.104Z,32.58
2022-12-14T05:08:10.270Z,22.77
2022-12-14T05:11:49.696Z,32.53
2022-12-14T05:14:00.957Z,33.88
2022-12-14T05:16:28.592Z,38.47
2022-12-14T05:18:55.949Z,34.72
2022-12-14T05:21:42.137Z,36.53
2022-12-14T05:24:09.386Z,33.90
2022-12-14T05:26:36.624Z,34.03
2022-12-14T05:29:04.522Z,37.63
2022-12-14T05:31:31.930Z,31.63
2022-12-14T05:33:59.125Z,31.80
2022-12-14T05:36:26.412Z,36.38
2022-12-14T05:38:53.613Z,39.90
2022-12-14T05:41:20.854Z,43.30
2022-12-14T05:43:49.095Z,51.22
2022-12-14T05:46:16.537Z,38.47
2022-12-14T05:48:48.980Z,44.55
2022-12-14T05:51:16.888Z,43.15
2022-12-14T05:53:44.241Z,40.60
2022-12-14T05:56:12.371Z,42.60
2022-12-14T05:58:39.856Z,43.28
2022-12-14T06:01:12.730Z,39.50
2022-12-14T06:03:44.341Z,40.58
2022-12-14T06:06:13.530Z,43.42
2022-12-14T06:08:44.208Z,50.17
2022-12-14T06:11:13.348Z,52.67
2022-12-14T06:13:42.125Z,42.40
2022-12-14T06:16:12.267Z,64.35
2022-12-14T06:18:50.458Z,57.53
2022-12-14T06:21:19.827Z,54.28
2022-12-14T06:23:47.400Z,56.60
2022-12-14T06:26:15.546Z,58.22
2022-12-14T06:28:43.062Z,56.60
2022-12-14T06:31:24.923Z,69.40
2022-12-14T06:33:53.277Z,65.13
2022-12-14T06:36:23.998Z,59.50
2022-12-14T06:38:52.084Z,63.60
2022-12-14T06:41:20.983Z,71.10
2022-12-14T06:43:49.202Z,58.30
2022-12-14T06:46:19.908Z,60.95
2022-12-14T06:48:55.357Z,72.40
2022-12-14T06:51:24.001Z,61.92
2022-12-14T06:53:52.774Z,65.00
2022-12-14T06:56:21.399Z,64.95
2022-12-14T06:58:49.049Z,67.88
2022-12-14T07:01:20.865Z,70.78
2022-12-14T07:03:50.438Z,73.50
2022-12-14T07:06:18.021Z,56.65
2022-12-14T07:08:45.555Z,62.22
2022-12-14T07:11:15.152Z,63.00
2022-12-14T07:13:43.068Z,63.90
2022-12-14T07:16:16.081Z,66.40
2022-12-14T07:18:43.829Z,59.55
2022-12-14T07:21:13.916Z,65.63
2022-12-14T07:23:42.918Z,65.20
2022-12-14T07:26:18.857Z,68.38
2022-12-14T07:28:47.089Z,57.47
2022-12-14T07:31:19.059Z,72.88
2022-12-14T07:33:46.912Z,68.90
2022-12-14T07:36:16.727Z,63.47
2022-12-14T07:38:45.532Z,67.75
2022-12-14T07:41:22.413Z,52.92
2022-12-14T07:43:51.839Z,65.90
2022-12-14T07:46:24.789Z,55.97
2022-12-14T07:48:54.168Z,64.90
2022-12-14T07:51:27.487Z,65.95
2022-12-14T07:53:55.299Z,69.97
2022-12-14T07:56:26.149Z,64.95
2022-12-14T07:58:56.206Z,62.97
2022-12-14T08:01:29.189Z,71.47
2022-12-14T08:04:05.724Z,59.30
2022-12-14T08:06:33.871Z,72.45
2022-12-14T08:09:01.620Z,52.90
2022-12-14T08:11:29.435Z,59.78
2022-12-14T08:13:59.439Z,68.38
2022-12-14T08:16:27.904Z,71.88
2022-12-14T08:18:57.195Z,64.07
2022-12-14T08:21:25.852Z,69.22
2022-12-14T08:23:54.869Z,60.08
2022-12-14T08:26:22.939Z,59.70
2022-12-14T08:28:50.483Z,71.45
2022-12-14T08:31:20.795Z,67.25
2022-12-14T08:33:48.825Z,70.05
2022-12-14T08:36:22.499Z,58.90
2022-12-14T08:38:54.648Z,55.78
2022-12-14T08:41:22.693Z,54.03
2022-12-14T08:43:56.028Z,67.43
2022-12-14T08:46:23.987Z,62.72
2022-12-14T08:48:53.249Z,58.67
2022-12-14T08:51:21.394Z,52.95
2022-12-14T08:53:48.732Z,60.92
2022-12-14T08:56:19.671Z,59.42
2022-12-14T08:58:47.475Z,58.95
2022-12-14T09:01:19.586Z,52.97
2022-12-14T09:03:47.654Z,51.63
2022-12-14T09:06:18.268Z,57.28
2022-12-14T09:08:47.187Z,45.88
2022-12-14T09:11:19.277Z,52.83
2022-12-14T09:13:47.154Z,46.63
2022-12-14T09:16:19.250Z,50.38
2022-12-14T09:18:47.875Z,51.50
2022-12-14T09:21:16.173Z,43.53
2022-12-14T09:23:43.622Z,51.08
2022-12-14T09:26:14.543Z,49.15
2022-12-14T09:28:45.230Z,50.60
2022-12-14T09:31:14.613Z,47.33
2022-12-14T09:33:42.366Z,50.90
2022-12-14T09:36:14.177Z,65.90
2022-12-14T09:38:50.445Z,61.03
2022-12-14T09:41:33.896Z,53.35
2022-12-14T09:44:58.912Z,49.60
2022-12-14T09:47:48.542Z,53.80
2022-12-14T09:50:20.089Z,46.80
2022-12-14T09:52:49.168Z,48.47
2022-12-14T09:55:19.244Z,54.05
2022-12-14T09:57:49.578Z,62.10
2022-12-14T10:00:19.773Z,47.28
2022-12-14T10:03:07.166Z,51.55
2022-12-14T10:05:53.557Z,43.10
2022-12-14T10:08:31.666Z,50.67
2022-12-14T10:11:07.584Z,52.63
2022-12-14T10:13:42.161Z,57.47
2022-12-14T10:16:40.758Z,51.90
2022-12-14T10:19:11.623Z,62.03
2022-12-14T10:21:44.412Z,63.78
2022-12-14T10:24:17.449Z,51.70
2022-12-14T10:26:50.256Z,46.00
2022-12-14T10:29:34.981Z,51.08
2022-12-14T10:32:19.150Z,42.65
2022-12-14T10:34:46.721Z,42.10
2022-12-14T10:37:26.911Z,46.25
2022-12-14T10:40:11.305Z,44.63
2022-12-14T10:42:49.205Z,42.58
2022-12-14T10:45:39.686Z,39.55
2022-12-14T10:51:07.523Z,42.65
2022-12-14T10:53:41.020Z,51.78
2022-12-14T10:56:25.786Z,52.75
2022-12-14T10:59:17.977Z,46.67
2022-12-14T11:01:47.885Z,48.90
2022-12-14T11:04:35.207Z,40.28
2022-12-14T11:07:15.133Z,52.40
2022-12-14T11:09:43.281Z,46.53
2022-12-14T11:12:13.435Z,38.25
2022-12-14T11:15:02.003Z,47.08
2022-12-14T11:17:44.074Z,37.78
2022-12-14T11:20:27.773Z,39.55
2022-12-14T11:23:07.206Z,49.08
2022-12-14T11:25:47.145Z,37.17
2022-12-14T11:28:41.265Z,40.58
2022-12-14T11:31:10.849Z,35.15
2022-12-14T11:33:44.671Z,41.70
2022-12-14T11:36:38.770Z,40.28
2022-12-14T11:39:07.358Z,41.28
2022-12-14T11:41:38.380Z,39.42
2022-12-14T11:44:21.551Z,40.97
2022-12-14T11:47:15.787Z,42.08
2022-12-14T11:49:56.810Z,44.25
2022-12-14T11:52:25.743Z,35.60
2022-12-14T11:54:54.302Z,41.25
2022-12-14T11:57:42.943Z,41.38
2022-12-14T12:00:30.714Z,38.33
2022-12-14T12:03:02.418Z,30.73
2022-12-14T12:05:33.403Z,43.05
2022-12-14T12:08:02.779Z,38.90
2022-12-14T12:10:49.684Z,40.47
2022-12-14T12:13:24.064Z,37.03
2022-12-14T12:15:57.079Z,47.15
2022-12-14T12:19:00.090Z,38.67
2022-12-14T12:21:36.980Z,37.58
2022-12-14T12:24:07.422Z,37.95
2022-12-14T12:26:49.892Z,40.85
2022-12-14T12:29:27.004Z,43.67
2022-12-14T12:32:06.014Z,37.65
2022-12-14T12:34:40.867Z,35.72
2022-12-14T12:37:26.198Z,37.30
2022-12-14T12:40:02.166Z,38.55
2022-12-14T12:42:38.567Z,42.70
2022-12-14T12:45:30.357Z,39.22
2022-12-14T12:48:15.828Z,39.55
2022-12-14T12:50:51.246Z,37.17
2022-12-14T12:53:30.370Z,41.03
2022-12-14T12:56:11.805Z,45.80
2022-12-14T12:58:40.832Z,41.05
2022-12-14T13:01:31.104Z,45.50
2022-12-14T13:04:03.651Z,35.63
2022-12-14T13:06:53.096Z,38.53
2022-12-14T13:09:31.708Z,36.63
2022-12-14T13:12:00.373Z,37.63
2022-12-14T13:14:33.729Z,47.67
2022-12-14T13:17:06.033Z,43.78
2022-12-14T13:19:51.340Z,46.45
2022-12-14T13:22:40.796Z,37.80
2022-12-14T13:25:58.718Z,38.58
2022-12-14T13:29:02.179Z,53.38
2022-12-14T13:31:43.130Z,44.55
2022-12-14T13:34:37.837Z,51.45
2022-12-14T13:37:26.347Z,41.75
2022-12-14T13:40:24.437Z,45.80
2022-12-14T13:43:05.592Z,45.03
2022-12-14T13:45:39.753Z,50.45
2022-12-14T13:48:20.697Z,50.72
2022-12-14T13:51:01.979Z,41.08
2022-12-14T13:53:33.872Z,53.78
2022-12-14T13:56:02.224Z,49.58
2022-12-14T13:58:38.640Z,45.67
2022-12-14T14:01:14.325Z,47.80
2022-12-14T14:03:45.441Z,42.38
2022-12-14T14:06:13.405Z,47.38
2022-12-14T14:08:43.103Z,45.03
2022-12-14T14:11:37.117Z,46.30
2022-12-14T14:14:39.724Z,44.22
2022-12-14T14:17:17.106Z,48.65
2022-12-14T14:19:49.694Z,42.20
2022-12-14T14:22:27.176Z,54.80
2022-12-14T14:25:09.303Z,52.28
2022-12-14T14:27:42.014Z,57.72
2022-12-14T14:30:34.095Z,45.67
2022-12-14T14:33:36.007Z,43.90
2022-12-14T14:35:50.029Z,53.83
2022-12-14T14:38:32.571Z,43.75
2022-12-14T14:41:17.810Z,47.13
2022-12-14T14:43:53.967Z,50.20
2022-12-14T14:46:37.467Z,67.38
2022-12-14T14:49:06.776Z,48.40
2022-12-14T14:51:36.832Z,45.13
2022-12-14T14:54:37.654Z,41.50
2022-12-14T14:57:03.792Z,46.65
2022-12-14T14:59:41.973Z,41.35
2022-12-14T15:02:28.447Z,46.28
2022-12-14T15:04:57.298Z,36.67
2022-12-14T15:07:30.617Z,41.47
2022-12-14T15:10:26.660Z,42.58
2022-12-14T15:13:01.894Z,44.72
2022-12-14T15:15:46.030Z,34.28
2022-12-14T15:18:33.019Z,42.78
2022-12-14T15:21:11.541Z,44.72
2022-12-14T15:23:56.064Z,48.13
2022-12-14T15:26:26.215Z,36.92
2022-12-14T15:28:56.385Z,61.25
2022-12-14T15:31:32.508Z,46.88
2022-12-14T15:34:01.417Z,42.83
2022-12-14T15:36:40.024Z,47.17
2022-12-14T15:39:26.621Z,46.58
2022-12-14T15:42:09.017Z,48.53
2022-12-14T15:44:36.400Z,53.72
2022-12-14T15:47:03.695Z,51.03
2022-12-14T15:49:31.340Z,58.05
2022-12-14T15:51:59.219Z,51.95
2022-12-14T15:54:26.928Z,42.97
2022-12-14T15:56:57.104Z,55.63
2022-12-14T15:59:36.405Z,55.55
2022-12-14T16:02:27.999Z,45.25
2022-12-14T16:04:58.295Z,47.30
2022-12-14T16:07:35.884Z,56.15
2022-12-14T16:10:18.555Z,53.72
2022-12-14T16:12:48.775Z,47.65
2022-12-14T16:15:25.936Z,64.50
2022-12-14T16:18:01.500Z,46.15
2022-12-14T16:20:36.058Z,54.90
2022-12-14T16:23:15.580Z,53.67
2022-12-14T16:25:58.729Z,48.70
2022-12-14T16:28:31.290Z,50.72
2022-12-14T16:31:27.698Z,46.92
2022-12-14T16:34:15.656Z,43.45
2022-12-14T16:36:56.279Z,46.33
2022-12-14T16:39:38.719Z,46.78
2022-12-14T16:42:16.004Z,46.25
2022-12-14T16:44:43.385Z,44.95
2022-12-14T16:47:14.475Z,44.92
2022-12-14T16:49:54.945Z,41.97
2022-12-14T16:52:34.303Z,43.45
2022-12-14T16:55:17.031Z,40.65
2022-12-14T16:58:00.374Z,43.08
2022-12-14T17:00:31.548Z,50.65
2022-12-14T17:03:20.583Z,46.45
2022-12-14T17:05:53.609Z,54.42
2022-12-14T17:08:21.080Z,58.65
2022-12-14T17:10:48.556Z,57.42
2022-12-14T17:13:15.816Z,55.40
2022-12-14T17:16:16.823Z,55.30
2022-12-14T17:18:44.232Z,60.17
2022-12-14T17:21:27.922Z,49.10
2022-12-14T17:23:55.977Z,30.40
2022-12-14T17:26:27.743Z,41.72
2022-12-14T17:28:56.392Z,40.33
2022-12-14T17:31:26.331Z,50.28
2022-12-14T17:33:56.112Z,64.32
2022-12-14T17:36:23.491Z,56.95
2022-12-14T17:38:50.723Z,50.17
2022-12-14T17:41:25.557Z,45.45
2022-12-14T17:43:57.359Z,42.33
2022-12-14T17:46:25.443Z,42.30
2022-12-14T17:48:53.348Z,57.03
2022-12-14T17:51:26.386Z,39.45
2022-12-14T17:53:55.757Z,42.63
2022-12-14T17:56:23.686Z,43.97
2022-12-14T17:58:51.095Z,47.00
2022-12-14T18:01:22.530Z,42.28
2022-12-14T18:03:50.770Z,41.50
2022-12-14T18:06:18.782Z,40.45
2022-12-14T18:08:46.683Z,41.40
2022-12-14T18:11:17.875Z,30.17
2022-12-14T18:13:45.233Z,39.83
2022-12-14T18:16:17.843Z,38.92
2022-12-14T18:18:46.033Z,30.48
2022-12-14T18:21:28.342Z,37.05
2022-12-14T18:23:56.237Z,40.00
2022-12-14T18:26:24.167Z,35.03
2022-12-14T18:28:53.844Z,36.15
2022-12-14T18:31:32.081Z,40.50
2022-12-14T18:33:59.480Z,39.13
2022-12-14T18:36:26.787Z,33.53
2022-12-14T18:38:54.144Z,32.72
2022-12-14T18:41:25.114Z,33.88
2022-12-14T18:43:52.791Z,39.20
2022-12-14T18:46:20.097Z,31.80
2022-12-14T18:48:47.340Z,27.45
2022-12-14T18:51:22.989Z,26.00
2022-12-14T18:53:51.271Z,30.17
2022-12-14T18:56:19.348Z,20.48
2022-12-14T18:58:47.450Z,26.58
2022-12-14T19:01:17.719Z,26.67
2022-12-14T19:03:45.478Z,31.27
2022-12-14T19:09:02.826Z,25.98
2022-12-14T19:11:35.991Z,25.75
2022-12-14T19:14:03.404Z,29.88
2022-12-14T19:16:30.960Z,31.65
2022-12-14T19:18:58.458Z,24.48
2022-12-14T19:21:26.207Z,24.33
2022-12-14T19:23:53.566Z,19.63
2022-12-14T19:26:21.239Z,22.92
2022-12-14T19:28:48.939Z,23.73
2022-12-14T19:31:18.889Z,28.20
2022-12-14T19:33:46.192Z,25.63
2022-12-14T19:36:13.501Z,31.75
2022-12-14T19:38:40.725Z,28.48
2022-12-14T19:41:11.341Z,26.30
2022-12-14T19:43:38.953Z,42.25
2022-12-14T19:46:11.251Z,29.15
2022-12-14T19:48:38.708Z,24.35
2022-12-14T19:51:12.416Z,28.42
2022-12-14T19:53:41.013Z,16.48
2022-12-14T19:56:09.019Z,26.65
2022-12-14T19:58:36.312Z,32.25
2022-12-14T20:01:08.992Z,31.88
2022-12-14T20:03:37.585Z,28.27
2022-12-14T20:06:06.249Z,22.63
2022-12-14T20:08:35.329Z,39.40
2022-12-14T20:11:07.930Z,37.75
2022-12-14T20:13:35.388Z,35.70
2022-12-14T20:16:02.689Z,27.50
2022-12-14T20:18:31.173Z,37.75
2022-12-14T20:21:03.564Z,24.85
2022-12-14T20:23:33.357Z,23.17
2022-12-14T20:26:02.381Z,22.15
2022-12-14T20:28:29.671Z,15.38
2022-12-14T20:30:57.241Z,32.22
2022-12-14T20:33:29.900Z,21.55
2022-12-14T20:35:58.039Z,29.98
2022-12-14T20:38:25.873Z,38.17
2022-12-14T20:40:53.638Z,15.25
2022-12-14T20:43:21.171Z,27.60
2022-12-14T20:45:48.536Z,22.52
2022-12-14T20:48:15.753Z,24.48
2022-12-14T20:50:43.876Z,24.08
2022-12-14T20:53:17.771Z,18.90
2022-12-14T20:55:45.164Z,14.57
2022-12-14T20:58:12.379Z,21.50
2022-12-14T21:00:39.618Z,17.00
2022-12-14T21:03:06.947Z,17.58
2022-12-14T21:05:38.738Z,25.75
2022-12-14T21:08:06.134Z,18.48
2022-12-14T21:10:33.821Z,39.38
2022-12-14T21:13:07.276Z,26.50
2022-12-14T21:15:35.473Z,21.55
2022-12-14T21:18:02.965Z,19.13
2022-12-14T21:20:30.296Z,24.23
2022-12-14T21:22:57.586Z,24.95
2022-12-14T21:25:24.856Z,22.58
2022-12-14T21:27:52.091Z,21.63
2022-12-14T21:30:19.430Z,28.52
2022-12-14T21:32:46.688Z,21.98
2022-12-14T21:35:17.451Z,17.05
2022-12-14T21:37:45.062Z,16.23
2022-12-14T21:40:35.125Z,31.90
2022-12-14T21:43:03.922Z,28.50
2022-12-14T21:45:31.268Z,21.58
2022-12-14T21:47:58.543Z,24.65
2022-12-14T21:50:25.781Z,14.90
2022-12-14T21:52:52.984Z,17.20
2022-12-14T21:55:20.241Z,15.15
2022-12-14T21:58:06.334Z,25.10
2022-12-14T22:00:33.721Z,22.25
2022-12-14T22:03:02.381Z,22.00
2022-12-14T22:05:29.889Z,17.50
2022-12-14T22:07:57.194Z,21.05
2022-12-14T22:10:25.211Z,27.25
2022-12-14T22:12:52.711Z,28.20
2022-12-14T22:15:19.994Z,18.48
2022-12-14T22:17:48.801Z,26.90
2022-12-14T22:20:16.133Z,27.25
2022-12-14T22:22:43.415Z,23.35
2022-12-14T22:25:10.713Z,17.17
2022-12-14T22:27:41.016Z,17.05
2022-12-14T22:30:09.351Z,14.35
2022-12-14T22:32:36.666Z,17.55
2022-12-14T22:35:04.403Z,14.45
2022-12-14T22:37:31.811Z,21.88
2022-12-14T22:39:59.111Z,19.70
2022-12-14T22:42:26.344Z,20.05
2022-12-14T22:44:54.606Z,21.90
2022-12-14T22:47:21.954Z,27.60
2022-12-14T22:49:49.207Z,22.77
2022-12-14T22:52:21.310Z,19.63
2022-12-14T22:54:52.634Z,24.35
2022-12-14T22:57:21.762Z,27.83
2022-12-14T22:59:58.219Z,21.55
2022-12-14T23:02:26.128Z,22.70
2022-12-14T23:04:53.617Z,20.80
2022-12-14T23:07:20.903Z,31.48
2022-12-14T23:10:06.964Z,26.10
2022-12-14T23:12:52.921Z,30.73
2022-12-14T23:15:38.681Z,26.60
2022-12-14T23:18:25.700Z,37.22
2022-12-14T23:21:12.382Z,28.02
2022-12-14T23:23:59.882Z,23.70
2022-12-14T23:29:31.861Z,25.35
2022-12-14T23:32:17.771Z,26.88
2022-12-14T23:35:03.837Z,17.02
2022-12-14T23:37:49.556Z,23.25
2022-12-14T23:40:35.443Z,28.83
2022-12-14T23:43:29.408Z,18.23
2022-12-14T23:46:15.966Z,24.73
2022-12-14T23:49:01.878Z,22.48
2022-12-14T23:51:48.370Z,21.17
2022-12-14T23:54:34.248Z,26.77
2022-12-14T23:57:22.741Z,35.67
